createdAt,value
2016-11-28T00:00:04.192Z,1021.82
2016-11-28T00:00:14.185Z,1021.82
2016-11-28T00:00:24.179Z,1021.78
2016-11-28T00:00:34.173Z,1021.76
2016-11-28T00:00:44.170Z,1021.87
2016-11-28T00:00:54.161Z,1021.8
2016-11-28T00:01:04.153Z,1021.8
2016-11-28T00:01:14.148Z,1021.77
2016-11-28T00:01:24.140Z,1021.81
2016-11-28T00:01:34.133Z,1021.78
2016-11-28T00:01:44.127Z,1021.83
2016-11-28T00:01:54.123Z,1021.75
2016-11-28T00:02:04.113Z,1021.75
2016-11-28T00:02:14.106Z,1021.82
2016-11-28T00:02:24.100Z,1021.82
2016-11-28T00:02:34.093Z,1021.83
2016-11-28T00:02:44.088Z,1021.82
2016-11-28T00:02:54.081Z,1021.82
2016-11-28T00:03:04.074Z,1021.85
2016-11-28T00:03:14.068Z,1021.82
2016-11-28T00:03:24.061Z,1021.87
2016-11-28T00:03:34.053Z,1021.89
2016-11-28T00:03:44.050Z,1021.88
2016-11-28T00:03:54.039Z,1021.85
2016-11-28T00:04:04.033Z,1021.85
2016-11-28T00:04:14.027Z,1021.86
2016-11-28T00:04:24.021Z,1021.8
2016-11-28T00:04:34.015Z,1021.81
2016-11-28T00:04:44.008Z,1021.74
2016-11-28T00:04:54.001Z,1021.83
2016-11-28T00:05:03.994Z,1021.88
2016-11-28T00:05:13.987Z,1021.92
2016-11-28T00:05:23.980Z,1021.86
2016-11-28T00:05:33.975Z,1021.83
2016-11-28T00:05:43.967Z,1021.88
2016-11-28T00:05:53.964Z,1021.86
2016-11-28T00:06:03.954Z,1021.86
2016-11-28T00:06:13.952Z,1021.88
2016-11-28T00:06:23.942Z,1021.84
2016-11-28T00:06:33.934Z,1021.87
2016-11-28T00:06:43.929Z,1021.86
2016-11-28T00:06:53.922Z,1021.8
2016-11-28T00:07:03.914Z,1021.85
2016-11-28T00:07:13.909Z,1021.83
2016-11-28T00:07:23.901Z,1021.81
2016-11-28T00:07:33.893Z,1021.82
2016-11-28T00:07:43.888Z,1021.84
2016-11-28T00:07:53.897Z,1021.85
2016-11-28T00:08:03.876Z,1021.84
2016-11-28T00:08:13.871Z,1021.89
2016-11-28T00:08:23.862Z,1021.87
2016-11-28T00:08:33.857Z,1021.86
2016-11-28T00:08:43.849Z,1021.82
2016-11-28T00:08:53.842Z,1021.85
2016-11-28T00:09:03.835Z,1021.88
2016-11-28T00:09:13.829Z,1021.89
2016-11-28T00:09:23.824Z,1021.82
2016-11-28T00:09:33.815Z,1021.88
2016-11-28T00:09:43.809Z,1021.92
2016-11-28T00:09:53.803Z,1021.88
2016-11-28T00:10:03.796Z,1021.93
2016-11-28T00:10:13.788Z,1021.89
2016-11-28T00:10:23.783Z,1021.89
2016-11-28T00:10:33.778Z,1021.88
2016-11-28T00:10:43.770Z,1021.94
2016-11-28T00:10:53.762Z,1021.96
2016-11-28T00:11:03.757Z,1021.87
2016-11-28T00:11:13.749Z,1021.9
2016-11-28T00:11:23.743Z,1021.91
2016-11-28T00:11:33.736Z,1021.9
2016-11-28T00:11:43.729Z,1021.92
2016-11-28T00:11:53.721Z,1021.95
2016-11-28T00:12:03.717Z,1021.95
2016-11-28T00:12:13.710Z,1021.98
2016-11-28T00:12:23.703Z,1021.97
2016-11-28T00:12:33.695Z,1021.95
2016-11-28T00:12:43.689Z,1021.98
2016-11-28T00:12:53.685Z,1021.96
2016-11-28T00:13:03.678Z,1021.98
2016-11-28T00:13:13.671Z,1021.97
2016-11-28T00:13:23.665Z,1021.95
2016-11-28T00:13:33.658Z,1021.96
2016-11-28T00:13:43.651Z,1022
2016-11-28T00:13:53.644Z,1021.98
2016-11-28T00:14:03.637Z,1021.99
2016-11-28T00:14:13.632Z,1021.93
2016-11-28T00:14:23.628Z,1021.99
2016-11-28T00:14:33.616Z,1021.98
2016-11-28T00:14:43.613Z,1021.98
2016-11-28T00:14:53.604Z,1021.95
2016-11-28T00:15:03.597Z,1021.96
2016-11-28T00:15:13.591Z,1021.99
2016-11-28T00:15:23.585Z,1021.95
2016-11-28T00:15:33.577Z,1021.98
2016-11-28T00:15:43.569Z,1021.96
2016-11-28T00:15:53.564Z,1022.01
2016-11-28T00:16:03.893Z,1022.06
2016-11-28T00:16:13.551Z,1022.01
2016-11-28T00:16:23.544Z,1022.01
2016-11-28T00:16:33.538Z,1022.05
2016-11-28T00:16:43.531Z,1022.04
2016-11-28T00:16:53.524Z,1022.06
2016-11-28T00:17:03.517Z,1022.07
2016-11-28T00:17:13.511Z,1021.99
2016-11-28T00:17:23.504Z,1021.98
2016-11-28T00:17:33.498Z,1022
2016-11-28T00:17:43.491Z,1022.01
2016-11-28T00:17:53.484Z,1021.99
2016-11-28T00:18:03.478Z,1021.97
2016-11-28T00:18:13.472Z,1021.98
2016-11-28T00:18:23.465Z,1022
2016-11-28T00:18:33.459Z,1022
2016-11-28T00:18:43.451Z,1021.95
2016-11-28T00:18:53.445Z,1021.96
2016-11-28T00:19:03.439Z,1021.97
2016-11-28T00:19:13.434Z,1021.93
2016-11-28T00:19:23.425Z,1021.95
2016-11-28T00:19:33.420Z,1021.96
2016-11-28T00:19:43.413Z,1021.98
2016-11-28T00:19:53.405Z,1021.95
2016-11-28T00:20:03.398Z,1022
2016-11-28T00:20:13.392Z,1021.98
2016-11-28T00:20:23.387Z,1021.99
2016-11-28T00:20:33.379Z,1021.97
2016-11-28T00:20:43.376Z,1021.98
2016-11-28T00:20:53.365Z,1021.97
2016-11-28T00:21:03.356Z,1021.95
2016-11-28T00:21:13.352Z,1021.96
2016-11-28T00:21:23.346Z,1021.98
2016-11-28T00:21:33.339Z,1021.98
2016-11-28T00:21:43.331Z,1021.97
2016-11-28T00:21:53.327Z,1021.93
2016-11-28T00:22:03.319Z,1021.97
2016-11-28T00:22:13.312Z,1021.91
2016-11-28T00:22:23.304Z,1021.96
2016-11-28T00:22:33.299Z,1021.98
2016-11-28T00:22:43.293Z,1021.94
2016-11-28T00:22:53.286Z,1021.93
2016-11-28T00:23:03.282Z,1021.98
2016-11-28T00:23:13.273Z,1021.96
2016-11-28T00:23:23.267Z,1021.95
2016-11-28T00:23:33.259Z,1022.01
2016-11-28T00:23:43.254Z,1021.98
2016-11-28T00:23:53.246Z,1021.97
2016-11-28T00:24:03.239Z,1022.01
2016-11-28T00:24:13.231Z,1022.03
2016-11-28T00:24:23.225Z,1021.99
2016-11-28T00:24:33.233Z,1022.06
2016-11-28T00:24:43.213Z,1022.06
2016-11-28T00:24:53.206Z,1022.02
2016-11-28T00:25:03.199Z,1022.01
2016-11-28T00:25:13.193Z,1022.02
2016-11-28T00:25:23.187Z,1022
2016-11-28T00:25:33.180Z,1021.97
2016-11-28T00:25:43.173Z,1021.99
2016-11-28T00:25:53.168Z,1021.96
2016-11-28T00:26:03.159Z,1021.98
2016-11-28T00:26:13.152Z,1021.98
2016-11-28T00:26:23.146Z,1021.99
2016-11-28T00:26:33.141Z,1022
2016-11-28T00:26:43.132Z,1022.03
2016-11-28T00:26:53.126Z,1022.03
2016-11-28T00:27:03.139Z,1022
2016-11-28T00:27:13.115Z,1022.09
2016-11-28T00:27:23.108Z,1021.96
2016-11-28T00:27:33.099Z,1021.96
2016-11-28T00:27:43.094Z,1022
2016-11-28T00:27:53.087Z,1021.98
2016-11-28T00:28:03.081Z,1022.01
2016-11-28T00:28:13.073Z,1021.99
2016-11-28T00:28:23.067Z,1022.01
2016-11-28T00:28:33.061Z,1021.94
2016-11-28T00:28:43.053Z,1021.99
2016-11-28T00:28:53.047Z,1021.96
2016-11-28T00:29:03.039Z,1021.99
2016-11-28T00:29:13.033Z,1022.02
2016-11-28T00:29:23.028Z,1022
2016-11-28T00:29:33.022Z,1022.02
2016-11-28T00:29:43.014Z,1021.96
2016-11-28T00:29:53.010Z,1021.92
2016-11-28T00:30:03.000Z,1021.96
2016-11-28T00:30:12.993Z,1021.96
2016-11-28T00:30:22.987Z,1022.01
2016-11-28T00:30:32.980Z,1022
2016-11-28T00:30:42.974Z,1022.01
2016-11-28T00:30:52.967Z,1021.99
2016-11-28T00:31:02.958Z,1022.01
2016-11-28T00:31:12.953Z,1022
2016-11-28T00:31:22.948Z,1022.05
2016-11-28T00:31:32.942Z,1022
2016-11-28T00:31:42.932Z,1021.96
2016-11-28T00:31:52.928Z,1022.02
2016-11-28T00:32:02.921Z,1021.99
2016-11-28T00:32:12.914Z,1021.99
2016-11-28T00:32:22.907Z,1022.03
2016-11-28T00:32:32.901Z,1022.04
2016-11-28T00:32:42.894Z,1022.06
2016-11-28T00:32:52.889Z,1022.1
2016-11-28T00:33:02.880Z,1022.06
2016-11-28T00:33:12.874Z,1022.04
2016-11-28T00:33:22.869Z,1022.06
2016-11-28T00:33:32.861Z,1022.01
2016-11-28T00:33:42.854Z,1022.07
2016-11-28T00:33:52.849Z,1022.08
2016-11-28T00:34:02.841Z,1022.04
2016-11-28T00:34:13.171Z,1022.08
2016-11-28T00:34:22.828Z,1022.06
2016-11-28T00:34:32.822Z,1022.09
2016-11-28T00:34:42.814Z,1022.06
2016-11-28T00:34:52.808Z,1022.08
2016-11-28T00:35:02.813Z,1022.07
2016-11-28T00:35:12.795Z,1022.09
2016-11-28T00:35:22.788Z,1022.08
2016-11-28T00:35:32.782Z,1022.05
2016-11-28T00:35:42.773Z,1022.07
2016-11-28T00:35:52.769Z,1022.06
2016-11-28T00:36:02.762Z,1022.06
2016-11-28T00:36:12.754Z,1022.05
2016-11-28T00:36:22.748Z,1022.08
2016-11-28T00:36:32.742Z,1022.06
2016-11-28T00:36:42.736Z,1022.13
2016-11-28T00:36:52.727Z,1022.12
2016-11-28T00:37:02.739Z,1022.1
2016-11-28T00:37:12.715Z,1022.09
2016-11-28T00:37:22.708Z,1022.08
2016-11-28T00:37:32.701Z,1022.09
2016-11-28T00:37:42.695Z,1022.1
2016-11-28T00:37:52.692Z,1022.09
2016-11-28T00:38:02.682Z,1022.1
2016-11-28T00:38:12.675Z,1022.1
2016-11-28T00:38:22.668Z,1022.07
2016-11-28T00:38:32.662Z,1022.12
2016-11-28T00:38:42.655Z,1022.08
2016-11-28T00:38:52.648Z,1022.05
2016-11-28T00:39:02.642Z,1022.11
2016-11-28T00:39:12.636Z,1022.09
2016-11-28T00:39:22.628Z,1022.09
2016-11-28T00:39:32.626Z,1022.08
2016-11-28T00:39:42.615Z,1022.1
2016-11-28T00:39:52.716Z,1022.15
2016-11-28T00:40:02.602Z,1022.07
2016-11-28T00:40:12.595Z,1022.07
2016-11-28T00:40:22.590Z,1022.07
2016-11-28T00:40:32.583Z,1022.14
2016-11-28T00:40:42.575Z,1022.1
2016-11-28T00:40:52.570Z,1022.09
2016-11-28T00:41:02.561Z,1022.11
2016-11-28T00:41:12.558Z,1022.13
2016-11-28T00:41:22.550Z,1022.11
2016-11-28T00:41:32.542Z,1022.1
2016-11-28T00:41:42.536Z,1022.07
2016-11-28T00:41:52.529Z,1022.13
2016-11-28T00:42:02.522Z,1022.16
2016-11-28T00:42:12.515Z,1022.15
2016-11-28T00:42:22.509Z,1022.13
2016-11-28T00:42:32.502Z,1022.15
2016-11-28T00:42:42.496Z,1022.12
2016-11-28T00:42:52.489Z,1022.21
2016-11-28T00:43:02.484Z,1022.16
2016-11-28T00:43:12.476Z,1022.16
2016-11-28T00:43:22.575Z,1022.24
2016-11-28T00:43:32.463Z,1022.16
2016-11-28T00:43:42.455Z,1022.15
2016-11-28T00:43:52.448Z,1022.15
2016-11-28T00:44:02.444Z,1022.18
2016-11-28T00:44:12.435Z,1022.19
2016-11-28T00:44:22.429Z,1022.13
2016-11-28T00:44:32.424Z,1022.17
2016-11-28T00:44:42.417Z,1022.24
2016-11-28T00:44:52.410Z,1022.19
2016-11-28T00:45:02.402Z,1022.13
2016-11-28T00:45:12.395Z,1022.14
2016-11-28T00:45:22.391Z,1022.15
2016-11-28T00:45:32.383Z,1022.14
2016-11-28T00:45:42.378Z,1022.14
2016-11-28T00:45:52.370Z,1022.17
2016-11-28T00:46:02.363Z,1022.13
2016-11-28T00:46:12.359Z,1022.17
2016-11-28T00:46:22.349Z,1022.16
2016-11-28T00:46:32.343Z,1022.14
2016-11-28T00:46:42.339Z,1022.14
2016-11-28T00:46:52.329Z,1022.08
2016-11-28T00:47:02.322Z,1022.13
2016-11-28T00:47:12.317Z,1022.11
2016-11-28T00:47:22.310Z,1022.16
2016-11-28T00:47:32.304Z,1022.17
2016-11-28T00:47:42.298Z,1022.16
2016-11-28T00:47:52.291Z,1022.17
2016-11-28T00:48:02.285Z,1022.12
2016-11-28T00:48:12.276Z,1022.18
2016-11-28T00:48:22.270Z,1022.11
2016-11-28T00:48:32.264Z,1022.16
2016-11-28T00:48:42.256Z,1022.15
2016-11-28T00:48:52.251Z,1022.18
2016-11-28T00:49:02.243Z,1022.18
2016-11-28T00:49:12.235Z,1022.18
2016-11-28T00:49:22.231Z,1022.2
2016-11-28T00:49:32.223Z,1022.16
2016-11-28T00:49:42.217Z,1022.16
2016-11-28T00:49:52.210Z,1022.24
2016-11-28T00:50:02.203Z,1022.19
2016-11-28T00:50:12.197Z,1022.24
2016-11-28T00:50:22.189Z,1022.23
2016-11-28T00:50:32.182Z,1022.21
2016-11-28T00:50:42.178Z,1022.21
2016-11-28T00:50:52.171Z,1022.26
2016-11-28T00:51:02.164Z,1022.23
2016-11-28T00:51:12.157Z,1022.23
2016-11-28T00:51:22.150Z,1022.27
2016-11-28T00:51:32.144Z,1022.21
2016-11-28T00:51:42.137Z,1022.2
2016-11-28T00:51:52.133Z,1022.27
2016-11-28T00:52:02.477Z,1022.25
2016-11-28T00:52:12.119Z,1022.28
2016-11-28T00:52:22.110Z,1022.23
2016-11-28T00:52:32.105Z,1022.28
2016-11-28T00:52:42.098Z,1022.27
2016-11-28T00:52:52.090Z,1022.28
2016-11-28T00:53:02.083Z,1022.25
2016-11-28T00:53:12.077Z,1022.26
2016-11-28T00:53:22.085Z,1022.24
2016-11-28T00:53:32.063Z,1022.27
2016-11-28T00:53:42.058Z,1022.29
2016-11-28T00:53:52.051Z,1022.28
2016-11-28T00:54:02.044Z,1022.28
2016-11-28T00:54:12.039Z,1022.28
2016-11-28T00:54:22.032Z,1022.32
2016-11-28T00:54:32.025Z,1022.26
2016-11-28T00:54:42.018Z,1022.32
2016-11-28T00:54:52.011Z,1022.27
2016-11-28T00:55:02.004Z,1022.27
2016-11-28T00:55:11.998Z,1022.28
2016-11-28T00:55:21.991Z,1022.3
2016-11-28T00:55:31.984Z,1022.28
2016-11-28T00:55:41.977Z,1022.27
2016-11-28T00:55:51.970Z,1022.28
2016-11-28T00:56:01.965Z,1022.32
2016-11-28T00:56:11.959Z,1022.3
2016-11-28T00:56:21.951Z,1022.37
2016-11-28T00:56:31.954Z,1022.33
2016-11-28T00:56:41.938Z,1022.31
2016-11-28T00:56:51.931Z,1022.33
2016-11-28T00:57:01.925Z,1022.29
2016-11-28T00:57:11.918Z,1022.3
2016-11-28T00:57:21.911Z,1022.29
2016-11-28T00:57:31.902Z,1022.29
2016-11-28T00:57:41.898Z,1022.32
2016-11-28T00:57:51.891Z,1022.35
2016-11-28T00:58:01.884Z,1022.27
2016-11-28T00:58:11.878Z,1022.37
2016-11-28T00:58:21.871Z,1022.29
2016-11-28T00:58:31.879Z,1022.32
2016-11-28T00:58:41.856Z,1022.38
2016-11-28T00:58:51.851Z,1022.33
2016-11-28T00:59:01.844Z,1022.31
2016-11-28T00:59:11.838Z,1022.31
2016-11-28T00:59:21.830Z,1022.39
2016-11-28T00:59:31.824Z,1022.34
2016-11-28T00:59:41.921Z,1022.29
2016-11-28T00:59:51.809Z,1022.3
2016-11-28T01:00:01.803Z,1022.34
2016-11-28T01:00:11.797Z,1022.32
2016-11-28T01:00:21.792Z,1022.3
2016-11-28T01:00:31.787Z,1022.36
2016-11-28T01:00:41.777Z,1022.34
2016-11-28T01:00:51.770Z,1022.4
2016-11-28T01:01:01.788Z,1022.34
2016-11-28T01:01:11.757Z,1022.37
2016-11-28T01:01:21.751Z,1022.36
2016-11-28T01:01:31.744Z,1022.4
2016-11-28T01:01:41.737Z,1022.36
2016-11-28T01:01:51.731Z,1022.42
2016-11-28T01:02:01.728Z,1022.37
2016-11-28T01:02:11.718Z,1022.38
2016-11-28T01:02:21.710Z,1022.35
2016-11-28T01:02:31.703Z,1022.34
2016-11-28T01:02:42.032Z,1022.4
2016-11-28T01:02:51.689Z,1022.37
2016-11-28T01:03:01.684Z,1022.37
2016-11-28T01:03:11.678Z,1022.38
2016-11-28T01:03:21.675Z,1022.38
2016-11-28T01:03:31.664Z,1022.39
2016-11-28T01:03:41.657Z,1022.35
2016-11-28T01:03:51.651Z,1022.43
2016-11-28T01:04:01.980Z,1022.34
2016-11-28T01:04:11.638Z,1022.33
2016-11-28T01:04:21.632Z,1022.38
2016-11-28T01:04:31.624Z,1022.37
2016-11-28T01:04:41.617Z,1022.32
2016-11-28T01:04:51.611Z,1022.36
2016-11-28T01:05:01.602Z,1022.39
2016-11-28T01:05:11.615Z,1022.39
2016-11-28T01:05:21.592Z,1022.38
2016-11-28T01:05:31.585Z,1022.37
2016-11-28T01:05:41.578Z,1022.33
2016-11-28T01:05:51.576Z,1022.33
2016-11-28T01:06:01.564Z,1022.37
2016-11-28T01:06:11.558Z,1022.36
2016-11-28T01:06:21.551Z,1022.36
2016-11-28T01:06:31.545Z,1022.38
2016-11-28T01:06:41.537Z,1022.39
2016-11-28T01:06:51.530Z,1022.35
2016-11-28T01:07:01.859Z,1022.39
2016-11-28T01:07:11.517Z,1022.41
2016-11-28T01:07:21.512Z,1022.38
2016-11-28T01:07:31.504Z,1022.39
2016-11-28T01:07:41.498Z,1022.41
2016-11-28T01:07:51.490Z,1022.39
2016-11-28T01:08:01.484Z,1022.4
2016-11-28T01:08:11.476Z,1022.42
2016-11-28T01:08:21.472Z,1022.43
2016-11-28T01:08:31.465Z,1022.41
2016-11-28T01:08:41.456Z,1022.45
2016-11-28T01:08:51.450Z,1022.43
2016-11-28T01:09:01.443Z,1022.41
2016-11-28T01:09:11.438Z,1022.4
2016-11-28T01:09:21.431Z,1022.43
2016-11-28T01:09:31.424Z,1022.41
2016-11-28T01:09:41.417Z,1022.41
2016-11-28T01:09:51.411Z,1022.44
2016-11-28T01:10:01.403Z,1022.46
2016-11-28T01:10:11.398Z,1022.39
2016-11-28T01:10:21.390Z,1022.41
2016-11-28T01:10:31.383Z,1022.4
2016-11-28T01:10:41.377Z,1022.42
2016-11-28T01:10:51.370Z,1022.41
2016-11-28T01:11:01.699Z,1022.43
2016-11-28T01:11:11.358Z,1022.43
2016-11-28T01:11:21.350Z,1022.42
2016-11-28T01:11:31.344Z,1022.43
2016-11-28T01:11:41.337Z,1022.46
2016-11-28T01:11:51.330Z,1022.41
2016-11-28T01:12:01.324Z,1022.41
2016-11-28T01:12:11.316Z,1022.4
2016-11-28T01:12:21.310Z,1022.41
2016-11-28T01:12:31.639Z,1022.42
2016-11-28T01:12:41.298Z,1022.4
2016-11-28T01:12:51.294Z,1022.42
2016-11-28T01:13:01.284Z,1022.41
2016-11-28T01:13:11.277Z,1022.41
2016-11-28T01:13:21.271Z,1022.44
2016-11-28T01:13:31.263Z,1022.43
2016-11-28T01:13:41.257Z,1022.42
2016-11-28T01:13:51.251Z,1022.4
2016-11-28T01:14:01.261Z,1022.38
2016-11-28T01:14:11.237Z,1022.45
2016-11-28T01:14:21.229Z,1022.4
2016-11-28T01:14:31.223Z,1022.38
2016-11-28T01:14:41.217Z,1022.42
2016-11-28T01:14:51.213Z,1022.46
2016-11-28T01:15:01.203Z,1022.42
2016-11-28T01:15:11.198Z,1022.43
2016-11-28T01:15:21.189Z,1022.39
2016-11-28T01:15:31.184Z,1022.42
2016-11-28T01:15:41.176Z,1022.37
2016-11-28T01:15:51.171Z,1022.4
2016-11-28T01:16:01.499Z,1022.41
2016-11-28T01:16:11.158Z,1022.4
2016-11-28T01:16:21.150Z,1022.39
2016-11-28T01:16:31.143Z,1022.41
2016-11-28T01:16:41.136Z,1022.39
2016-11-28T01:16:51.131Z,1022.42
2016-11-28T01:17:01.125Z,1022.41
2016-11-28T01:17:11.116Z,1022.41
2016-11-28T01:17:21.112Z,1022.42
2016-11-28T01:17:31.104Z,1022.36
2016-11-28T01:17:41.096Z,1022.42
2016-11-28T01:17:51.090Z,1022.4
2016-11-28T01:18:01.083Z,1022.39
2016-11-28T01:18:11.076Z,1022.43
2016-11-28T01:18:21.069Z,1022.42
2016-11-28T01:18:31.064Z,1022.39
2016-11-28T01:18:41.058Z,1022.38
2016-11-28T01:18:51.049Z,1022.44
2016-11-28T01:19:01.043Z,1022.46
2016-11-28T01:19:11.055Z,1022.39
2016-11-28T01:19:21.031Z,1022.44
2016-11-28T01:19:31.023Z,1022.41
2016-11-28T01:19:41.013Z,1022.43
2016-11-28T01:19:51.027Z,1022.42
2016-11-28T01:20:01.004Z,1022.37
2016-11-28T01:20:10.996Z,1022.41
2016-11-28T01:20:20.989Z,1022.45
2016-11-28T01:20:30.985Z,1022.43
2016-11-28T01:20:40.977Z,1022.43
2016-11-28T01:20:50.968Z,1022.38
2016-11-28T01:21:00.962Z,1022.42
2016-11-28T01:21:10.957Z,1022.38
2016-11-28T01:21:20.950Z,1022.39
2016-11-28T01:21:30.941Z,1022.41
2016-11-28T01:21:40.935Z,1022.45
2016-11-28T01:21:50.927Z,1022.41
2016-11-28T01:22:00.923Z,1022.46
2016-11-28T01:22:10.916Z,1022.41
2016-11-28T01:22:20.908Z,1022.44
2016-11-28T01:22:30.923Z,1022.45
2016-11-28T01:22:40.896Z,1022.47
2016-11-28T01:22:50.889Z,1022.46
2016-11-28T01:23:00.882Z,1022.43
2016-11-28T01:23:10.878Z,1022.45
2016-11-28T01:23:20.869Z,1022.47
2016-11-28T01:23:30.863Z,1022.44
2016-11-28T01:23:40.868Z,1022.5
2016-11-28T01:23:50.850Z,1022.51
2016-11-28T01:24:01.178Z,1022.45
2016-11-28T01:24:10.836Z,1022.42
2016-11-28T01:24:20.829Z,1022.47
2016-11-28T01:24:30.823Z,1022.48
2016-11-28T01:24:40.816Z,1022.44
2016-11-28T01:24:50.810Z,1022.39
2016-11-28T01:25:00.801Z,1022.46
2016-11-28T01:25:10.797Z,1022.48
2016-11-28T01:25:20.791Z,1022.44
2016-11-28T01:25:30.782Z,1022.45
2016-11-28T01:25:40.776Z,1022.45
2016-11-28T01:25:50.768Z,1022.46
2016-11-28T01:26:00.763Z,1022.42
2016-11-28T01:26:10.755Z,1022.46
2016-11-28T01:26:20.749Z,1022.44
2016-11-28T01:26:30.743Z,1022.46
2016-11-28T01:26:40.737Z,1022.45
2016-11-28T01:26:50.728Z,1022.43
2016-11-28T01:27:00.722Z,1022.46
2016-11-28T01:27:10.717Z,1022.44
2016-11-28T01:27:20.708Z,1022.45
2016-11-28T01:27:30.702Z,1022.45
2016-11-28T01:27:40.695Z,1022.44
2016-11-28T01:27:50.689Z,1022.47
2016-11-28T01:28:00.681Z,1022.48
2016-11-28T01:28:10.674Z,1022.46
2016-11-28T01:28:20.689Z,1022.45
2016-11-28T01:28:30.664Z,1022.49
2016-11-28T01:28:40.654Z,1022.47
2016-11-28T01:28:50.651Z,1022.45
2016-11-28T01:29:00.642Z,1022.49
2016-11-28T01:29:10.635Z,1022.47
2016-11-28T01:29:20.630Z,1022.44
2016-11-28T01:29:30.621Z,1022.47
2016-11-28T01:29:40.615Z,1022.53
2016-11-28T01:29:50.610Z,1022.51
2016-11-28T01:30:00.600Z,1022.53
2016-11-28T01:30:10.595Z,1022.49
2016-11-28T01:30:20.588Z,1022.52
2016-11-28T01:30:30.582Z,1022.51
2016-11-28T01:30:40.576Z,1022.52
2016-11-28T01:30:50.568Z,1022.48
2016-11-28T01:31:00.562Z,1022.52
2016-11-28T01:31:10.559Z,1022.52
2016-11-28T01:31:20.885Z,1022.59
2016-11-28T01:31:30.542Z,1022.55
2016-11-28T01:31:40.535Z,1022.61
2016-11-28T01:31:50.864Z,1022.55
2016-11-28T01:32:00.523Z,1022.6
2016-11-28T01:32:10.517Z,1022.56
2016-11-28T01:32:20.508Z,1022.53
2016-11-28T01:32:30.501Z,1022.55
2016-11-28T01:32:40.494Z,1022.54
2016-11-28T01:32:50.488Z,1022.59
2016-11-28T01:33:00.481Z,1022.57
2016-11-28T01:33:10.476Z,1022.55
2016-11-28T01:33:20.468Z,1022.56
2016-11-28T01:33:30.461Z,1022.52
2016-11-28T01:33:40.455Z,1022.57
2016-11-28T01:33:50.450Z,1022.6
2016-11-28T01:34:00.441Z,1022.54
2016-11-28T01:34:10.436Z,1022.53
2016-11-28T01:34:20.425Z,1022.58
2016-11-28T01:34:30.422Z,1022.55
2016-11-28T01:34:40.415Z,1022.52
2016-11-28T01:34:50.407Z,1022.63
2016-11-28T01:35:00.403Z,1022.59
2016-11-28T01:35:10.730Z,1022.53
2016-11-28T01:35:20.388Z,1022.53
2016-11-28T01:35:30.379Z,1022.57
2016-11-28T01:35:40.374Z,1022.53
2016-11-28T01:35:50.368Z,1022.54
2016-11-28T01:36:00.361Z,1022.56
2016-11-28T01:36:10.355Z,1022.61
2016-11-28T01:36:20.349Z,1022.59
2016-11-28T01:36:30.341Z,1022.59
2016-11-28T01:36:40.335Z,1022.64
2016-11-28T01:36:50.328Z,1022.63
2016-11-28T01:37:00.334Z,1022.57
2016-11-28T01:37:10.314Z,1022.59
2016-11-28T01:37:20.309Z,1022.57
2016-11-28T01:37:30.300Z,1022.5
2016-11-28T01:37:40.294Z,1022.5
2016-11-28T01:37:50.289Z,1022.52
2016-11-28T01:38:00.282Z,1022.5
2016-11-28T01:38:10.275Z,1022.53
2016-11-28T01:38:20.269Z,1022.57
2016-11-28T01:38:30.259Z,1022.56
2016-11-28T01:38:40.254Z,1022.5
2016-11-28T01:38:50.248Z,1022.53
2016-11-28T01:39:00.240Z,1022.49
2016-11-28T01:39:10.235Z,1022.48
2016-11-28T01:39:20.229Z,1022.52
2016-11-28T01:39:30.221Z,1022.52
2016-11-28T01:39:40.214Z,1022.53
2016-11-28T01:39:50.578Z,1022.52
2016-11-28T01:40:00.201Z,1022.54
2016-11-28T01:40:10.192Z,1022.54
2016-11-28T01:40:20.188Z,1022.52
2016-11-28T01:40:30.180Z,1022.56
2016-11-28T01:40:40.173Z,1022.55
2016-11-28T01:40:50.167Z,1022.55
2016-11-28T01:41:00.160Z,1022.52
2016-11-28T01:41:10.153Z,1022.54
2016-11-28T01:41:20.149Z,1022.54
2016-11-28T01:41:30.140Z,1022.55
2016-11-28T01:41:40.134Z,1022.58
2016-11-28T01:41:50.127Z,1022.54
2016-11-28T01:42:00.121Z,1022.6
2016-11-28T01:42:10.115Z,1022.55
2016-11-28T01:42:20.107Z,1022.59
2016-11-28T01:42:30.100Z,1022.6
2016-11-28T01:42:40.094Z,1022.6
2016-11-28T01:42:50.086Z,1022.57
2016-11-28T01:43:00.084Z,1022.53
2016-11-28T01:43:10.074Z,1022.53
2016-11-28T01:43:20.067Z,1022.54
2016-11-28T01:43:30.061Z,1022.59
2016-11-28T01:43:40.053Z,1022.49
2016-11-28T01:43:50.048Z,1022.48
2016-11-28T01:44:00.041Z,1022.54
2016-11-28T01:44:10.034Z,1022.5
2016-11-28T01:44:20.028Z,1022.52
2016-11-28T01:44:30.020Z,1022.52
2016-11-28T01:44:40.014Z,1022.53
2016-11-28T01:44:50.007Z,1022.52
2016-11-28T01:44:59.997Z,1022.5
2016-11-28T01:45:09.993Z,1022.47
2016-11-28T01:45:19.987Z,1022.49
2016-11-28T01:45:29.981Z,1022.47
2016-11-28T01:45:39.973Z,1022.55
2016-11-28T01:45:49.967Z,1022.52
2016-11-28T01:45:59.960Z,1022.47
2016-11-28T01:46:09.953Z,1022.52
2016-11-28T01:46:19.946Z,1022.48
2016-11-28T01:46:29.940Z,1022.49
2016-11-28T01:46:39.933Z,1022.51
2016-11-28T01:46:49.928Z,1022.49
2016-11-28T01:46:59.920Z,1022.55
2016-11-28T01:47:09.916Z,1022.55
2016-11-28T01:47:19.906Z,1022.51
2016-11-28T01:47:29.901Z,1022.5
2016-11-28T01:47:39.895Z,1022.53
2016-11-28T01:47:49.885Z,1022.54
2016-11-28T01:47:59.879Z,1022.52
2016-11-28T01:48:09.872Z,1022.56
2016-11-28T01:48:20.207Z,1022.53
2016-11-28T01:48:29.860Z,1022.56
2016-11-28T01:48:39.854Z,1022.54
2016-11-28T01:48:49.846Z,1022.58
2016-11-28T01:48:59.841Z,1022.58
2016-11-28T01:49:09.833Z,1022.58
2016-11-28T01:49:19.826Z,1022.55
2016-11-28T01:49:29.820Z,1022.57
2016-11-28T01:49:39.813Z,1022.57
2016-11-28T01:49:49.808Z,1022.57
2016-11-28T01:50:00.135Z,1022.6
2016-11-28T01:50:09.793Z,1022.59
2016-11-28T01:50:19.784Z,1022.56
2016-11-28T01:50:29.779Z,1022.59
2016-11-28T01:50:39.773Z,1022.54
2016-11-28T01:50:49.766Z,1022.55
2016-11-28T01:50:59.760Z,1022.56
2016-11-28T01:51:09.753Z,1022.54
2016-11-28T01:51:19.746Z,1022.58
2016-11-28T01:51:29.738Z,1022.57
2016-11-28T01:51:39.735Z,1022.56
2016-11-28T01:51:49.724Z,1022.57
2016-11-28T01:51:59.722Z,1022.58
2016-11-28T01:52:09.711Z,1022.54
2016-11-28T01:52:19.707Z,1022.61
2016-11-28T01:52:29.699Z,1022.59
2016-11-28T01:52:39.692Z,1022.55
2016-11-28T01:52:49.687Z,1022.54
2016-11-28T01:52:59.678Z,1022.58
2016-11-28T01:53:09.673Z,1022.55
2016-11-28T01:53:19.667Z,1022.57
2016-11-28T01:53:29.659Z,1022.54
2016-11-28T01:53:39.652Z,1022.54
2016-11-28T01:53:49.650Z,1022.54
2016-11-28T01:53:59.641Z,1022.53
2016-11-28T01:54:09.633Z,1022.54
2016-11-28T01:54:19.624Z,1022.59
2016-11-28T01:54:29.618Z,1022.56
2016-11-28T01:54:39.612Z,1022.57
2016-11-28T01:54:49.606Z,1022.56
2016-11-28T01:54:59.599Z,1022.59
2016-11-28T01:55:09.928Z,1022.56
2016-11-28T01:55:19.585Z,1022.53
2016-11-28T01:55:29.578Z,1022.59
2016-11-28T01:55:39.571Z,1022.56
2016-11-28T01:55:49.564Z,1022.6
2016-11-28T01:55:59.556Z,1022.57
2016-11-28T01:56:09.566Z,1022.58
2016-11-28T01:56:19.545Z,1022.59
2016-11-28T01:56:29.537Z,1022.55
2016-11-28T01:56:39.531Z,1022.62
2016-11-28T01:56:49.525Z,1022.6
2016-11-28T01:56:59.517Z,1022.61
2016-11-28T01:57:09.511Z,1022.6
2016-11-28T01:57:19.505Z,1022.66
2016-11-28T01:57:29.499Z,1022.62
2016-11-28T01:57:39.491Z,1022.66
2016-11-28T01:57:49.485Z,1022.56
2016-11-28T01:57:59.478Z,1022.67
2016-11-28T01:58:09.472Z,1022.66
2016-11-28T01:58:19.464Z,1022.65
2016-11-28T01:58:29.460Z,1022.66
2016-11-28T01:58:39.451Z,1022.63
2016-11-28T01:58:49.444Z,1022.61
2016-11-28T01:58:59.439Z,1022.6
2016-11-28T01:59:09.431Z,1022.63
2016-11-28T01:59:19.424Z,1022.68
2016-11-28T01:59:29.418Z,1022.68
2016-11-28T01:59:39.410Z,1022.66
2016-11-28T01:59:49.405Z,1022.66
2016-11-28T01:59:59.398Z,1022.64
2016-11-28T02:00:09.390Z,1022.65
2016-11-28T02:00:19.383Z,1022.66
2016-11-28T02:00:29.378Z,1022.69
2016-11-28T02:00:39.370Z,1022.61
2016-11-28T02:00:49.364Z,1022.61
2016-11-28T02:00:59.704Z,1022.63
2016-11-28T02:01:09.352Z,1022.66
2016-11-28T02:01:19.344Z,1022.64